Shinkai Maru — JJ4012 — position and weather

sailwx.info

Track history (hours):
 
Tides and Currents Weather Stations Pressure Air Temp Water Temp Dewpoint Dewpoint Depression Visibility Wind Speed Wind Dir Waves Ship Positions

Shinkai Maru

Last reported at 2015-Jul-30 03:07 UTC. Time now 2015-Aug-01 07:51 UTC.
Position N 34°41' E 134°50'.

Length 76 m; draft 3.6 m.

Type: Cargo ship. MMSI: 431301346.

Date/timePositionNaut miles runAvg speedWind from/ knotsBaromVisibWave heightAir tempDewpointWater temp
2015-Jul-30 03:07N 34°41' E 134°50'6 9.1
2015-Jul-30 02:27N 34°38' E 134°56'9 9.8
2015-Jul-30 01:33N 34°37' E 135°07'3 2.7
2015-Jul-30 00:29N 34°38' E 135°10'910.1
2015-Jul-29 23:33N 34°29' E 135°06'1512.4
2015-Jul-29 22:19N 34°15' E 134°60'1013.2
2015-Jul-29 21:33N 34°05' E 135°01'  
2015-Jul-26 20:24N 34°20' E 134°59'910.0
2015-Jul-26 19:33N 34°29' E 135°02'9 7.0
2015-Jul-26 18:18N 34°36' E 134°56'7 0.2
2015-Jul-25 01:24N 34°41' E 134°50'7 8.2
2015-Jul-25 00:31N 34°37' E 134°57'8 7.8
2015-Jul-24 23:32N 34°33' E 135°05'2211.2
2015-Jul-24 21:33N 34°11' E 135°00'4 0.1
2015-Jul-22 23:33N 34°14' E 134°58'1212.0
2015-Jul-22 22:32N 34°26' E 135°00'10 9.4
2015-Jul-22 21:26N 34°36' E 134°57'8 0.4
2015-Jul-22 01:31N 34°41' E 134°49'1111.9
2015-Jul-22 00:33N 34°37' E 135°02'1110.6
2015-Jul-21 23:33N 34°26' E 135°03'1212.3
2015-Jul-21 22:33N 34°14' E 134°60'  
Track history (hours):
 
Tides and Currents Weather Stations Pressure Air Temp Water Temp Dewpoint Dewpoint Depression Visibility Wind Speed Wind Dir Waves Ship Positions

Shinkai Maru

Last reported at 2015-Jul-30 03:07 UTC. Time now 2015-Aug-01 07:51 UTC.
Position N 34°41' E 134°50'.

Length 76 m; draft 3.6 m.

Type: Cargo ship. MMSI: 431301346.

Date/timePositionNaut miles runAvg speedWind from/ knotsBaromVisibWave heightAir tempDewpointWater temp
2015-Jul-30 03:07N 34°41' E 134°50'6 9.1
2015-Jul-30 02:27N 34°38' E 134°56'9 9.8
2015-Jul-30 01:33N 34°37' E 135°07'3 2.7
2015-Jul-30 00:29N 34°38' E 135°10'910.1
2015-Jul-29 23:33N 34°29' E 135°06'1512.4
2015-Jul-29 22:19N 34°15' E 134°60'1013.2
2015-Jul-29 21:33N 34°05' E 135°01'  
2015-Jul-26 20:24N 34°20' E 134°59'910.0
2015-Jul-26 19:33N 34°29' E 135°02'9 7.0
2015-Jul-26 18:18N 34°36' E 134°56'7 0.2
2015-Jul-25 01:24N 34°41' E 134°50'7 8.2
2015-Jul-25 00:31N 34°37' E 134°57'8 7.8
2015-Jul-24 23:32N 34°33' E 135°05'2211.2
2015-Jul-24 21:33N 34°11' E 135°00'4 0.1
2015-Jul-22 23:33N 34°14' E 134°58'1212.0
2015-Jul-22 22:32N 34°26' E 135°00'10 9.4
2015-Jul-22 21:26N 34°36' E 134°57'8 0.4
2015-Jul-22 01:31N 34°41' E 134°49'1111.9
2015-Jul-22 00:33N 34°37' E 135°02'1110.6
2015-Jul-21 23:33N 34°26' E 135°03'1212.3
2015-Jul-21 22:33N 34°14' E 134°60'  

Dump ship's entire track history